»·PEaware :: FFT583 KDEN-KSLC

FFT583 :: KDEN-KSLC

FLIGHT INFORMATION

Flight Status: Arrived
Operator:
Frontier Airlines
More flights by this operator :: More flights under this callsign
Pilot: John C. (18682)
Aircraft: AIRBUS A320
(A320)
More flights by this aircraft type
Origin: KDEN Denver Intl
United States
Destination: KSLC Salt Lake City Intl
United States
More flights between these airports :: More routes between these airports
Route: FOOOT3 RLG EKR LEEHY5
File this flight plan on PilotEdge
Remarks:
Altitude:
(Current/Filed)
36,000ft
Speed:
(Current/Filed)
446kts
Departed: 13-May-18 01:41 PM
Arrived: 13-May-18 02:54 PM
Distance/Time
Traveled:
339nm/1:13
Distance/Time
To Go:
Arrived

Flight Plot

Page will automatically refresh every two minutes.

Flight plan parsing failed; only flown route is shown


Map Options




Map Legend


Flown Route
Filed Route
Departure Airport
Arrival Airport
Navaid (VOR, NDB)
Fix

Horizontal Profiles

Position Reports

Time Latitude Longitude Heading Altitude Ground
Speed
13-May-18 13:13 39.853369 -104.671936 0 5443ft 0kts
13-May-18 13:14 39.853369 -104.671936 0 5443ft 0kts
13-May-18 13:15 39.853369 -104.671936 0 5443ft 0kts
13-May-18 13:16 39.853369 -104.671936 0 5443ft 0kts
13-May-18 13:17 39.853369 -104.671936 0 5443ft 0kts
13-May-18 13:18 39.853369 -104.671936 0 5443ft 0kts
13-May-18 13:19 39.853369 -104.671936 0 5443ft 0kts
13-May-18 13:20 39.853369 -104.671936 0 5443ft 0kts
13-May-18 13:21 39.853369 -104.671936 0 5443ft 0kts
13-May-18 13:22 39.853369 -104.671936 0 5443ft 0kts
13-May-18 13:23 39.853369 -104.671936 0 5443ft 0kts
13-May-18 13:24 39.853369 -104.671936 0 5443ft 0kts
13-May-18 13:25 39.853369 -104.671936 0 5443ft 0kts
13-May-18 13:26 39.853369 -104.671936 0 5443ft 0kts
13-May-18 13:27 39.853369 -104.671936 0 5443ft 0kts
13-May-18 13:28 39.853369 -104.671936 0 5443ft 0kts
13-May-18 13:29 39.853294 -104.671937 0 5443ft 2kts
13-May-18 13:30 39.852768 -104.672086 69 5443ft 2kts
13-May-18 13:31 39.852755 -104.672296 89 5443ft 0kts
13-May-18 13:32 39.852755 -104.672295 89 5443ft 0kts
13-May-18 13:33 39.852753 -104.671571 90 5443ft 14kts
13-May-18 13:34 39.852832 -104.665379 65 5443ft 10kts
13-May-18 13:35 39.852913 -104.662801 100 5443ft 10kts
13-May-18 13:36 39.848166 -104.662327 180 5443ft 21kts
13-May-18 13:37 39.842156 -104.662398 180 5443ft 21kts
13-May-18 13:38 39.835927 -104.662466 179 5443ft 23kts
13-May-18 13:39 39.829504 -104.662555 179 5443ft 18kts
13-May-18 13:40 39.828419 -104.660896 87 5443ft 12kts
13-May-18 13:41 39.850365 -104.660346 3 5945ft 172kts
13-May-18 13:42 39.894058 -104.693853 285 8396ft 252kts
13-May-18 13:43 39.916939 -104.792678 284 10928ft 320kts
13-May-18 13:44 39.942741 -104.909464 273 13910ft 345kts
13-May-18 13:45 39.951413 -105.031960 275 16995ft 354kts
13-May-18 13:46 39.965844 -105.156854 275 19736ft 361kts
13-May-18 13:47 39.980609 -105.284711 274 22059ft 372kts
13-May-18 13:48 39.982520 -105.416320 263 24168ft 375kts
13-May-18 13:49 39.978327 -105.552293 263 26085ft 384kts
13-May-18 13:50 39.974246 -105.691283 262 27853ft 392kts
13-May-18 13:51 39.971593 -105.833102 263 29454ft 400kts
13-May-18 13:52 39.977929 -105.979920 267 30895ft 411kts
13-May-18 13:53 39.986106 -106.129043 267 32382ft 413kts
13-May-18 13:54 39.993984 -106.276181 266 34078ft 405kts
13-May-18 13:55 40.001591 -106.421714 266 35463ft 402kts
13-May-18 13:56 40.008814 -106.566502 266 36125ft 399kts
13-May-18 13:57 40.015739 -106.709753 265 36133ft 400kts
13-May-18 13:58 40.022555 -106.854095 265 36136ft 399kts
13-May-18 13:59 40.029140 -106.997361 263 36162ft 396kts
13-May-18 14:00 40.035507 -107.139788 262 36171ft 392kts
13-May-18 14:01 40.041679 -107.281829 262 36171ft 390kts
13-May-18 14:02 40.047637 -107.422924 262 36149ft 390kts
13-May-18 14:03 40.053413 -107.563741 262 36146ft 390kts
13-May-18 14:04 40.059012 -107.704397 262 36165ft 391kts
13-May-18 14:05 40.064485 -107.846159 262 36180ft 391kts
13-May-18 14:06 40.070275 -107.987579 263 36181ft 392kts
13-May-18 14:07 40.076795 -108.129557 262 36172ft 392kts
13-May-18 14:08 40.083051 -108.270874 262 36164ft 391kts
13-May-18 14:09 40.089154 -108.412892 262 36162ft 391kts
13-May-18 14:10 40.095048 -108.554093 262 36155ft 391kts
13-May-18 14:11 40.100654 -108.692337 262 36146ft 391kts
13-May-18 14:12 40.106195 -108.833159 262 36136ft 389kts
13-May-18 14:13 40.111559 -108.973851 262 36120ft 388kts
13-May-18 14:14 40.116754 -109.114555 262 36128ft 388kts
13-May-18 14:15 40.121768 -109.254973 263 36136ft 389kts
13-May-18 14:16 40.126633 -109.395990 263 36146ft 389kts
13-May-18 14:17 40.131334 -109.537267 263 36145ft 390kts
13-May-18 14:18 40.135677 -109.672578 262 36147ft 390kts
13-May-18 14:19 40.139941 -109.810530 262 36156ft 390kts
13-May-18 14:20 40.144130 -109.951564 262 36149ft 389kts
13-May-18 14:21 40.148154 -110.092896 262 36135ft 389kts
13-May-18 14:22 40.148313 -110.232516 260 35457ft 385kts
13-May-18 14:23 40.147126 -110.372663 260 34506ft 388kts
13-May-18 14:24 40.145774 -110.512997 260 33581ft 384kts
13-May-18 14:25 40.144317 -110.648772 260 31973ft 367kts
13-May-18 14:26 40.142753 -110.778669 259 30206ft 352kts
13-May-18 14:27 40.141111 -110.903620 260 28468ft 340kts
13-May-18 14:28 40.139338 -111.027133 263 26710ft 342kts
13-May-18 14:29 40.137451 -111.150790 265 24923ft 340kts
13-May-18 14:30 40.135454 -111.272404 265 23155ft 332kts
13-May-18 14:31 40.133379 -111.391125 265 21435ft 324kts
13-May-18 14:32 40.131245 -111.506812 265 19731ft 317kts
13-May-18 14:33 40.155413 -111.615679 292 18767ft 321kts
13-May-18 14:34 40.194128 -111.720677 292 18227ft 325kts
13-May-18 14:35 40.233275 -111.827048 292 17675ft 329kts
13-May-18 14:36 40.274295 -111.933909 306 17090ft 335kts
13-May-18 14:37 40.352475 -111.999034 327 15996ft 336kts
13-May-18 14:38 40.435601 -112.051938 352 14712ft 338kts
13-May-18 14:39 40.527776 -112.064062 353 12981ft 332kts
13-May-18 14:40 40.617715 -112.076057 353 11296ft 324kts
13-May-18 14:41 40.703744 -112.086420 353 11026ft 307kts
13-May-18 14:42 40.787821 -112.096207 353 11030ft 294kts
13-May-18 14:43 40.864515 -112.105336 354 10324ft 272kts
13-May-18 14:44 40.937554 -112.114011 354 9461ft 257kts
13-May-18 14:45 41.008790 -112.122485 355 9054ft 257kts
13-May-18 14:46 41.072917 -112.124216 31 8867ft 213kts
13-May-18 14:47 41.081757 -112.057157 135 8050ft 203kts
13-May-18 14:48 41.039023 -112.010156 151 7936ft 198kts
13-May-18 14:49 40.985718 -111.997682 174 7544ft 189kts
13-May-18 14:50 40.934596 -111.991692 174 6756ft 180kts
13-May-18 14:51 40.887708 -111.986242 173 5816ft 163kts
13-May-18 14:52 40.846438 -111.981453 173 5009ft 142kts
13-May-18 14:53 40.807643 -111.976854 175 4295ft 145kts
13-May-18 14:54 40.787332 -111.974642 180 4236ft 17kts
13-May-18 14:55 40.785024 -111.975429 203 4236ft 6kts
13-May-18 14:56 40.784462 -111.978481 351 4236ft 8kts
13-May-18 14:57 40.784844 -111.978443 9 4236ft 0kts
13-May-18 14:58 40.784844 -111.978443 9 4236ft 0kts
13-May-18 14:59 40.784844 -111.978443 9 4236ft 0kts
13-May-18 15:00 40.784844 -111.978443 9 4236ft 0kts
13-May-18 15:01 40.784844 -111.978443 9 4236ft 0kts
13-May-18 15:02 40.784844 -111.978443 9 4236ft 0kts
13-May-18 15:03 40.784844 -111.978443 9 4236ft 0kts
13-May-18 15:04 40.784844 -111.978443 9 4236ft 0kts
13-May-18 15:05 40.784844 -111.978443 9 4236ft 0kts
13-May-18 15:06 40.784844 -111.978443 9 4236ft 0kts
13-May-18 15:07 40.784844 -111.978443 9 4236ft 0kts
13-May-18 15:08 40.784844 -111.978443 9 4236ft 0kts

Navigation Log

Ident Type
Flight plan parsing failed, navigation log unavailable